createdAt,value
2022-10-08T00:02:53.133Z,98012.13
2022-10-08T00:07:54.618Z,98012.13
2022-10-08T00:12:55.976Z,98017.50
2022-10-08T00:17:57.333Z,98011.06
2022-10-08T00:22:58.692Z,98013.97
2022-10-08T00:28:00.215Z,98005.50
2022-10-08T00:33:02.421Z,97997.41
2022-10-08T00:38:04.647Z,97988.91
2022-10-08T00:43:07.755Z,97994.72
2022-10-08T00:48:15.601Z,97986.63
2022-10-08T00:53:17.543Z,97983.50
2022-10-08T00:58:25.131Z,97973.34
2022-10-08T01:03:26.584Z,97971.91
2022-10-08T01:08:38.597Z,97955.34
2022-10-08T01:13:56.342Z,97956.56
2022-10-08T01:19:11.653Z,97949.50
2022-10-08T01:24:58.298Z,97961.47
2022-10-08T01:30:04.398Z,97943.66
2022-10-08T01:35:12.628Z,97945.69
2022-10-08T01:40:18.976Z,97932.41
2022-10-08T01:45:32.682Z,97931.16
2022-10-08T01:50:40.994Z,97922.47
2022-10-08T01:55:48.454Z,97915.00
2022-10-08T02:00:51.108Z,97915.84
2022-10-08T02:05:54.413Z,97911.28
2022-10-08T02:10:55.778Z,97913.16
2022-10-08T02:16:11.121Z,97900.50
2022-10-08T02:21:21.110Z,97900.50
2022-10-08T02:26:29.795Z,97889.72
2022-10-08T02:31:37.702Z,97897.81
2022-10-08T02:36:42.742Z,97891.59
2022-10-08T02:41:51.701Z,97898.03
2022-10-08T02:46:58.115Z,97895.94
2022-10-08T02:52:02.822Z,97893.88
2022-10-08T02:57:18.650Z,97899.63
2022-10-08T03:02:27.653Z,97904.81
2022-10-08T03:07:31.624Z,97900.84
2022-10-08T03:12:33.938Z,97906.22
2022-10-08T03:17:41.234Z,97896.09
2022-10-08T03:22:42.857Z,97903.09
2022-10-08T03:27:44.216Z,97904.97
2022-10-08T03:32:45.815Z,97906.25
2022-10-08T03:37:47.346Z,97908.50
2022-10-08T03:42:49.270Z,97914.88
2022-10-08T03:47:52.335Z,97912.78
2022-10-08T03:52:53.754Z,97911.53
2022-10-08T03:57:55.142Z,97912.97
2022-10-08T04:02:56.606Z,97909.03
2022-10-08T04:07:58.024Z,97909.84
2022-10-08T04:12:59.382Z,97910.28
2022-10-08T04:18:00.765Z,97909.06
2022-10-08T04:23:02.127Z,97912.38
2022-10-08T04:28:06.374Z,97901.16
2022-10-08T04:33:07.773Z,97909.84
2022-10-08T04:38:09.133Z,97908.38
2022-10-08T04:43:10.640Z,97904.41
2022-10-08T04:48:12.881Z,97898.78
2022-10-08T04:53:14.241Z,97907.69
2022-10-08T04:58:15.620Z,97906.88
2022-10-08T05:03:17.301Z,97914.50
2022-10-08T05:08:18.671Z,97909.56
2022-10-08T05:13:20.029Z,97916.81
2022-10-08T05:18:22.413Z,97918.31
2022-10-08T05:23:23.733Z,97914.81
2022-10-08T05:28:25.179Z,97925.63
2022-10-08T05:33:26.565Z,97925.44
2022-10-08T05:38:33.989Z,97921.97
2022-10-08T05:43:36.345Z,97925.91
2022-10-08T05:48:37.870Z,97937.50
2022-10-08T05:53:41.427Z,97937.09
2022-10-08T05:58:44.022Z,97943.69
2022-10-08T06:03:49.196Z,97951.13
2022-10-08T06:08:55.457Z,97958.78
2022-10-08T06:13:59.128Z,97976.16
2022-10-08T06:19:01.981Z,97983.19
2022-10-08T06:24:06.692Z,97988.13
2022-10-08T06:29:14.672Z,97991.44
2022-10-08T06:34:16.044Z,97997.06
2022-10-08T06:39:18.318Z,98003.47
2022-10-08T06:44:19.781Z,98007.41
2022-10-08T06:49:26.405Z,98009.28
2022-10-08T06:54:27.884Z,98014.09
2022-10-08T06:59:29.265Z,98009.34
2022-10-08T07:04:30.741Z,98016.78
2022-10-08T07:09:32.098Z,98016.19
2022-10-08T07:14:33.656Z,98022.59
2022-10-08T07:19:35.047Z,98010.97
2022-10-08T07:24:36.400Z,98021.94
2022-10-08T07:29:38.497Z,98015.06
2022-10-08T07:34:39.843Z,98013.81
2022-10-08T07:39:41.199Z,98026.22
2022-10-08T07:44:42.594Z,98038.84
2022-10-08T07:49:44.061Z,98033.59
2022-10-08T07:54:45.423Z,98028.88
2022-10-08T07:59:46.773Z,98032.81
2022-10-08T08:04:48.184Z,98035.34
2022-10-08T08:09:49.579Z,98042.97
2022-10-08T08:14:50.927Z,98037.34
2022-10-08T08:19:52.368Z,98032.69
2022-10-08T08:24:53.844Z,98027.81
2022-10-08T08:29:55.303Z,98037.09
2022-10-08T08:34:56.782Z,98037.47
2022-10-08T08:39:59.165Z,98033.06
2022-10-08T08:45:03.429Z,98040.53
2022-10-08T08:50:45.481Z,98054.03
2022-10-08T08:55:56.159Z,98039.66
2022-10-08T09:01:12.049Z,98053.13
2022-10-08T09:06:17.333Z,98061.16
2022-10-08T09:11:21.886Z,98052.41
2022-10-08T09:16:29.777Z,98070.44
2022-10-08T09:21:33.693Z,98070.03
2022-10-08T09:26:36.207Z,98062.59
2022-10-08T09:31:47.939Z,98064.66
2022-10-08T09:37:01.808Z,98062.09
2022-10-08T09:42:18.339Z,98068.22
2022-10-08T09:47:22.494Z,98081.66
2022-10-08T09:52:26.923Z,98080.75
2022-10-08T09:57:29.746Z,98080.81
2022-10-08T10:02:36.863Z,98092.34
2022-10-08T10:07:44.435Z,98086.81
2022-10-08T10:12:54.435Z,98095.84
2022-10-08T10:18:01.084Z,98097.13
2022-10-08T10:23:22.381Z,98102.97
2022-10-08T10:28:48.268Z,98106.47
2022-10-08T10:33:57.574Z,98112.09
2022-10-08T10:39:22.854Z,98104.94
2022-10-08T10:44:34.199Z,98102.00
2022-10-08T10:49:38.399Z,98095.28
2022-10-08T10:54:58.485Z,98098.13
2022-10-08T11:00:23.422Z,98096.03
2022-10-08T11:05:32.109Z,98102.63
2022-10-08T11:11:09.040Z,98100.09
2022-10-08T11:16:45.193Z,98094.25
2022-10-08T11:22:03.694Z,98089.31
2022-10-08T11:27:38.509Z,98088.31
2022-10-08T11:32:50.593Z,98099.31
2022-10-08T11:38:04.944Z,98094.34
2022-10-08T11:43:33.546Z,98087.94
2022-10-08T11:48:35.827Z,98087.31
2022-10-08T11:53:37.155Z,98085.44
2022-10-08T11:58:38.790Z,98089.09
2022-10-08T12:03:41.757Z,98085.81
2022-10-08T12:08:58.661Z,98082.53
2022-10-08T12:14:12.416Z,98083.81
2022-10-08T12:26:08.817Z,98086.13
2022-10-08T12:32:38.234Z,98084.22
2022-10-08T12:37:50.503Z,98076.97
2022-10-08T12:43:07.712Z,98086.97
2022-10-08T12:48:15.805Z,98095.81
2022-10-08T12:53:18.224Z,98073.88
2022-10-08T12:58:26.318Z,98080.56
2022-10-08T13:03:27.958Z,98079.94
2022-10-08T13:08:35.856Z,98083.13
2022-10-08T13:13:39.961Z,98084.72
2022-10-08T13:18:44.020Z,98092.22
2022-10-08T13:23:45.586Z,98100.03
2022-10-08T13:28:59.979Z,98105.94
2022-10-08T13:34:03.856Z,98107.47
2022-10-08T13:39:05.541Z,98110.25
2022-10-08T13:44:08.054Z,98114.38
2022-10-08T13:49:35.853Z,98118.34
2022-10-08T13:54:41.501Z,98124.47
2022-10-08T13:59:43.615Z,98115.06
2022-10-08T14:04:44.978Z,98132.44
2022-10-08T14:09:46.354Z,98130.09
2022-10-08T14:14:47.818Z,98131.47
2022-10-08T14:19:50.194Z,98131.31
2022-10-08T14:24:51.587Z,98134.84
2022-10-08T14:29:53.008Z,98147.53
2022-10-08T14:34:54.379Z,98157.50
2022-10-08T14:39:55.744Z,98155.69
2022-10-08T14:44:57.159Z,98153.44
2022-10-08T14:49:58.576Z,98163.38
2022-10-08T14:55:00.011Z,98163.03
2022-10-08T15:00:01.417Z,98177.78
2022-10-08T15:05:02.904Z,98187.72
2022-10-08T15:10:08.131Z,98188.38
2022-10-08T15:15:10.479Z,98192.97
2022-10-08T15:20:36.554Z,98205.78
2022-10-08T15:25:42.004Z,98206.19
2022-10-08T15:30:56.241Z,98207.56
2022-10-08T15:36:00.835Z,98210.22
2022-10-08T15:41:27.154Z,98212.47
2022-10-08T15:46:31.755Z,98219.28
2022-10-08T15:51:41.927Z,98230.44
2022-10-08T15:57:13.463Z,98237.66
2022-10-08T16:02:19.499Z,98242.03
2022-10-08T16:07:32.126Z,98246.16
2022-10-08T16:12:37.339Z,98250.31
2022-10-08T16:17:45.908Z,98242.84
2022-10-08T16:22:53.705Z,98254.41
2022-10-08T16:28:03.868Z,98273.81
2022-10-08T16:33:17.649Z,98272.16
2022-10-08T16:38:34.382Z,98283.72
2022-10-08T16:43:50.421Z,98294.03
2022-10-08T16:49:08.848Z,98294.41
2022-10-08T16:54:20.672Z,98308.00
2022-10-08T16:59:40.157Z,98310.22
2022-10-08T17:04:54.862Z,98319.47
2022-10-08T17:10:07.683Z,98326.81
2022-10-08T17:15:15.150Z,98340.19
2022-10-08T17:20:31.201Z,98354.00
2022-10-08T17:25:43.328Z,98356.06
2022-10-08T17:30:45.034Z,98364.69
2022-10-08T17:35:48.698Z,98371.09
2022-10-08T17:40:50.291Z,98375.63
2022-10-08T17:45:52.884Z,98378.69
2022-10-08T17:50:54.451Z,98382.16
2022-10-08T17:56:01.071Z,98385.03
2022-10-08T18:01:10.839Z,98393.09
2022-10-08T18:06:33.362Z,98397.63
2022-10-08T18:11:44.500Z,98403.38
2022-10-08T18:17:03.055Z,98412.19
2022-10-08T18:22:08.514Z,98420.63
2022-10-08T18:27:09.874Z,98438.38
2022-10-08T18:32:11.249Z,98437.75
2022-10-08T18:37:12.641Z,98444.13
2022-10-08T18:42:14.141Z,98449.38
2022-10-08T18:47:15.585Z,98460.50
2022-10-08T18:52:21.349Z,98470.50
2022-10-08T18:57:23.184Z,98476.91
2022-10-08T19:02:24.713Z,98484.13
2022-10-08T19:07:26.131Z,98487.34
2022-10-08T19:12:27.602Z,98487.09
2022-10-08T19:17:28.987Z,98487.84
2022-10-08T19:22:30.438Z,98501.44
2022-10-08T19:27:31.848Z,98498.28
2022-10-08T19:32:33.203Z,98514.81
2022-10-08T19:37:35.022Z,98521.63
2022-10-08T19:42:36.445Z,98529.34
2022-10-08T19:47:38.043Z,98537.94
2022-10-08T19:52:39.464Z,98538.19
2022-10-08T19:57:41.039Z,98545.09
2022-10-08T20:02:42.477Z,98551.66
2022-10-08T20:07:44.893Z,98570.94
2022-10-08T20:12:46.864Z,98586.69
2022-10-08T20:17:50.451Z,98576.88
2022-10-08T20:22:52.477Z,98583.41
2022-10-08T20:27:53.906Z,98584.59
2022-10-08T20:32:55.418Z,98588.63
2022-10-08T20:37:56.857Z,98598.00
2022-10-08T20:43:04.592Z,98607.41
2022-10-08T20:48:06.113Z,98603.59
2022-10-08T20:53:10.055Z,98607.16
2022-10-08T20:58:16.157Z,98618.22
2022-10-08T21:03:17.847Z,98614.56
2022-10-08T21:08:21.804Z,98621.91
2022-10-08T21:13:25.515Z,98631.59
2022-10-08T21:18:27.063Z,98631.59
2022-10-08T21:23:31.674Z,98636.13
2022-10-08T21:28:33.933Z,98631.13
2022-10-08T21:33:46.436Z,98643.19
2022-10-08T21:38:49.130Z,98641.69
2022-10-08T21:43:53.189Z,98647.53
2022-10-08T21:48:59.853Z,98651.91
2022-10-08T21:54:02.813Z,98650.72
2022-10-08T21:59:05.953Z,98652.72
2022-10-08T22:04:13.259Z,98648.56
2022-10-08T22:09:18.151Z,98661.25
2022-10-08T22:14:19.986Z,98659.47
2022-10-08T22:19:21.824Z,98659.47
2022-10-08T22:24:23.250Z,98658.97
2022-10-08T22:29:24.610Z,98666.50
2022-10-08T22:34:25.961Z,98670.50
2022-10-08T22:39:27.333Z,98674.03
2022-10-08T22:44:29.414Z,98682.56
2022-10-08T22:49:30.786Z,98680.22
2022-10-08T22:54:32.154Z,98687.59
2022-10-08T22:59:33.522Z,98690.41
2022-10-08T23:04:34.901Z,98685.56
2022-10-08T23:09:36.258Z,98692.09
2022-10-08T23:14:37.638Z,98699.94
2022-10-08T23:19:39.022Z,98703.31
2022-10-08T23:24:40.385Z,98705.97
2022-10-08T23:29:41.747Z,98713.16
2022-10-08T23:34:43.125Z,98706.94
2022-10-08T23:39:44.712Z,98713.66
2022-10-08T23:44:46.110Z,98710.97
2022-10-08T23:49:47.489Z,98713.84
2022-10-08T23:54:48.851Z,98726.19
2022-10-08T23:59:50.201Z,98728.19
